Time;durP1;ratioP1;P1;durP2;ratioP2;P2;SDS_P1;SDS_P2;PMS_P1;PMS_P2;Temp;Humidity;BMP_temperature;BMP_pressure;BME280_temperature;BME280_humidity;BME280_pressure;Samples;Min_cycle;Max_cycle;Signal;HPM_P1;HPM_P2
2022/05/05 00:00:06;;;;;;;0.00;0.00;;;16.10;99.90;;;;;;5052024;28;20036;-74
2022/05/05 00:02:35;;;;;;;0.00;0.00;;;16.10;99.90;;;;;;5037164;28;20382;-74
2022/05/05 00:05:01;;;;;;;0.00;0.00;;;16.30;99.90;;;;;;5033875;28;20151;-74
2022/05/05 00:07:29;;;;;;;0.00;0.00;;;16.10;99.90;;;;;;5032818;28;20053;-74
2022/05/05 00:09:55;;;;;;;0.00;0.00;;;15.90;99.90;;;;;;5033659;28;20033;-74
2022/05/05 00:15:07;;;;;;;0.00;0.00;;;16.00;99.90;;;;;;5033624;28;20063;-74
2022/05/05 00:17:34;;;;;;;0.50;0.50;;;16.10;99.90;;;;;;5032314;28;20017;-74
2022/05/05 00:20:01;;;;;;;0.00;0.00;;;16.20;99.90;;;;;;5049634;28;20055;-74
2022/05/05 00:22:27;;;;;;;0.00;0.00;;;16.00;99.90;;;;;;5054229;28;20032;-74
2022/05/05 00:24:53;;;;;;;0.00;0.00;;;16.00;99.90;;;;;;5053610;28;20020;-74
2022/05/05 00:27:19;;;;;;;0.00;0.00;;;16.10;99.90;;;;;;5054869;28;20021;-74
2022/05/05 00:29:45;;;;;;;0.00;0.00;;;16.20;99.90;;;;;;5071491;28;20012;-73
2022/05/05 00:32:11;;;;;;;0.00;0.00;;;16.10;99.90;;;;;;5075134;28;20048;-73
2022/05/05 00:34:37;;;;;;;0.00;0.00;;;16.10;99.90;;;;;;5069743;28;20029;-74
2022/05/05 00:37:04;;;;;;;0.00;0.00;;;16.10;99.90;;;;;;5056656;28;20031;-73
2022/05/05 00:39:30;;;;;;;0.00;0.00;;;16.20;99.90;;;;;;5058364;28;20023;-74
2022/05/05 00:42:00;;;;;;;0.00;0.00;;;16.40;99.90;;;;;;5053460;28;20027;-74
2022/05/05 00:44:26;;;;;;;0.75;0.17;;;16.40;99.90;;;;;;5051880;28;20083;-74
2022/05/05 00:46:52;;;;;;;0.45;0.45;;;16.40;99.90;;;;;;5051596;28;20017;-74
2022/05/05 00:49:19;;;;;;;0.00;0.00;;;16.30;99.90;;;;;;5052233;28;20021;-74
2022/05/05 00:51:45;;;;;;;0.00;0.00;;;16.40;99.90;;;;;;5049268;28;20119;-74
2022/05/05 00:54:11;;;;;;;0.00;0.00;;;16.60;99.90;;;;;;5041065;28;20041;-74
2022/05/05 00:56:38;;;;;;;0.00;0.00;;;16.60;99.90;;;;;;5051070;28;20057;-74
2022/05/05 00:59:05;;;;;;;0.00;0.00;;;16.60;99.90;;;;;;5049942;28;20010;-74
2022/05/05 01:01:32;;;;;;;0.15;0.15;;;16.70;99.90;;;;;;5041569;28;20021;-74
2022/05/05 01:03:58;;;;;;;0.00;0.00;;;16.80;99.90;;;;;;5052464;28;20029;-74
2022/05/05 01:06:24;;;;;;;0.00;0.00;;;16.80;99.90;;;;;;5049658;28;20112;-74
2022/05/05 01:08:50;;;;;;;0.00;0.00;;;16.90;99.90;;;;;;5051063;28;20468;-74
2022/05/05 01:11:16;;;;;;;2.05;1.55;;;16.90;99.90;;;;;;5051294;28;20227;-74
2022/05/05 01:13:43;;;;;;;0.00;0.00;;;17.10;99.90;;;;;;5042709;28;20025;-74
2022/05/05 01:16:10;;;;;;;0.20;0.20;;;17.20;99.90;;;;;;5051626;28;20488;-74
2022/05/05 01:18:38;;;;;;;0.00;0.00;;;17.10;99.90;;;;;;5052127;28;20103;-74
2022/05/05 01:21:05;;;;;;;0.00;0.00;;;17.10;99.90;;;;;;5051251;28;20029;-74
2022/05/05 01:23:31;;;;;;;0.00;0.00;;;17.00;99.90;;;;;;5052557;28;20025;-74
2022/05/05 01:28:45;;;;;;;0.00;0.00;;;17.00;99.90;;;;;;5046605;28;20078;-74
2022/05/05 01:31:12;;;;;;;0.00;0.00;;;17.20;99.90;;;;;;5044872;28;20108;-74
2022/05/05 01:33:39;;;;;;;0.00;0.00;;;16.60;99.90;;;;;;5037055;28;20026;-75
2022/05/05 01:36:05;;;;;;;0.00;0.00;;;16.60;99.90;;;;;;5039079;28;20075;-75
2022/05/05 01:38:40;;;;;;;0.90;0.55;;;16.90;99.90;;;;;;5047562;28;20100;-75
2022/05/05 01:41:11;;;;;;;0.00;0.00;;;17.00;99.90;;;;;;5044200;28;20380;-75
2022/05/05 01:43:38;;;;;;;0.00;0.00;;;16.70;99.90;;;;;;5045929;28;20511;-76
2022/05/05 01:46:05;;;;;;;0.00;0.00;;;16.80;99.90;;;;;;5048080;28;20072;-75
2022/05/05 01:48:32;;;;;;;0.10;0.10;;;17.00;99.90;;;;;;5044385;28;20024;-74
2022/05/05 01:50:59;;;;;;;0.00;0.00;;;17.20;99.90;;;;;;5041112;28;20029;-75
2022/05/05 01:53:25;;;;;;;0.00;0.00;;;17.20;99.90;;;;;;5042116;28;20034;-75
2022/05/05 01:55:51;;;;;;;0.00;0.00;;;17.00;99.90;;;;;;5045729;28;20074;-75
2022/05/05 01:58:18;;;;;;;0.00;0.00;;;16.90;99.90;;;;;;5045225;28;20025;-75
2022/05/05 02:00:44;;;;;;;0.00;0.00;;;16.90;99.90;;;;;;5074540;28;20021;-75
2022/05/05 02:03:13;;;;;;;0.10;0.08;;;16.60;99.90;;;;;;5055739;28;20021;-75
2022/05/05 02:05:43;;;;;;;0.00;0.00;;;16.50;99.90;;;;;;5052996;28;20021;-75
2022/05/05 02:08:10;;;;;;;0.00;0.00;;;16.70;99.90;;;;;;5056025;28;20028;-74
2022/05/05 02:10:37;;;;;;;0.00;0.00;;;16.80;99.90;;;;;;5055155;28;20036;-75
2022/05/05 02:13:04;;;;;;;0.00;0.00;;;16.90;99.90;;;;;;5055800;28;20525;-74
2022/05/05 02:15:31;;;;;;;0.93;0.93;;;16.90;99.90;;;;;;5052550;28;20473;-74
2022/05/05 02:17:57;;;;;;;0.00;0.00;;;16.60;99.90;;;;;;5045813;28;20120;-74
2022/05/05 02:20:23;;;;;;;0.08;0.08;;;16.40;99.90;;;;;;5051681;28;20123;-74
2022/05/05 02:22:49;;;;;;;0.15;0.15;;;16.50;99.90;;;;;;5043647;28;20393;-74
2022/05/05 02:25:15;;;;;;;0.00;0.00;;;16.60;99.90;;;;;;5045435;28;20132;-75
2022/05/05 02:27:52;;;;;;;0.00;0.00;;;16.70;99.90;;;;;;5042753;28;20021;-78
2022/05/05 02:30:20;;;;;;;0.00;0.00;;;16.90;99.90;;;;;;5048694;28;20100;-74
2022/05/05 02:32:47;;;;;;;0.00;0.00;;;17.10;99.90;;;;;;5041339;28;20104;-74
2022/05/05 02:35:13;;;;;;;0.00;0.00;;;17.20;99.90;;;;;;5043307;28;20017;-73
2022/05/05 02:40:25;;;;;;;0.30;0.25;;;16.70;99.90;;;;;;5052600;28;20032;-75
2022/05/05 02:42:51;;;;;;;0.00;0.00;;;16.70;99.90;;;;;;5049195;28;20024;-76
2022/05/05 02:45:17;;;;;;;0.10;0.10;;;16.90;99.90;;;;;;5047267;28;20025;-77
2022/05/05 02:47:46;;;;;;;0.00;0.00;;;17.00;99.90;;;;;;5047878;28;20469;-77
2022/05/05 02:50:12;;;;;;;0.00;0.00;;;17.20;99.90;;;;;;5049222;28;20040;-77
2022/05/05 02:52:38;;;;;;;0.00;0.00;;;17.50;99.90;;;;;;5052599;28;20017;-77
2022/05/05 02:55:06;;;;;;;0.00;0.00;;;17.20;99.90;;;;;;5045852;28;20045;-77
2022/05/05 02:57:32;;;;;;;0.00;0.00;;;17.30;99.90;;;;;;5049318;28;20061;-78
2022/05/05 02:59:58;;;;;;;0.08;0.08;;;17.60;99.90;;;;;;5048249;28;20033;-78
2022/05/05 03:02:25;;;;;;;0.00;0.00;;;17.60;99.90;;;;;;5049037;28;20017;-79
2022/05/05 03:04:51;;;;;;;0.20;0.10;;;17.70;99.90;;;;;;5053469;28;20033;-79
2022/05/05 03:07:18;;;;;;;0.00;0.00;;;17.60;99.90;;;;;;5052863;28;20079;-79
2022/05/05 03:09:44;;;;;;;0.00;0.00;;;17.60;99.90;;;;;;5052463;28;20085;-79
2022/05/05 03:12:11;;;;;;;0.00;0.00;;;17.20;99.90;;;;;;5049876;28;20020;-79
2022/05/05 03:14:37;;;;;;;0.00;0.00;;;17.10;99.90;;;;;;5049364;28;20452;-79
2022/05/05 03:17:04;;;;;;;0.10;0.10;;;17.20;99.90;;;;;;5053234;28;20021;-79
2022/05/05 03:19:31;;;;;;;0.00;0.00;;;17.00;99.90;;;;;;5052487;28;20017;-79
2022/05/05 03:21:57;;;;;;;0.00;0.00;;;17.00;99.90;;;;;;5053256;28;20532;-79
2022/05/05 03:24:23;;;;;;;0.00;0.00;;;17.00;99.90;;;;;;5049377;28;20490;-78
2022/05/05 03:26:50;;;;;;;0.00;0.00;;;16.80;99.90;;;;;;5054212;28;20040;-78
2022/05/05 03:29:16;;;;;;;0.00;0.00;;;17.00;99.90;;;;;;5050515;28;20025;-77
2022/05/05 03:31:42;;;;;;;0.00;0.00;;;17.20;99.90;;;;;;5053514;28;20465;-79
2022/05/05 03:34:09;;;;;;;0.00;0.00;;;17.30;99.90;;;;;;5051501;28;20409;-79
2022/05/05 03:36:35;;;;;;;0.00;0.00;;;17.50;99.90;;;;;;5048104;28;20106;-79
2022/05/05 03:39:02;;;;;;;0.47;0.47;;;17.50;99.90;;;;;;5052134;28;20029;-78
2022/05/05 03:41:28;;;;;;;0.00;0.00;;;17.50;99.90;;;;;;5053561;28;20483;-78
2022/05/05 03:43:54;;;;;;;0.00;0.00;;;17.50;99.90;;;;;;5051791;28;20033;-78
2022/05/05 03:46:20;;;;;;;0.00;0.00;;;17.60;99.90;;;;;;5052111;28;20025;-78
2022/05/05 03:48:46;;;;;;;0.00;0.00;;;17.70;99.90;;;;;;5053315;28;20079;-78
2022/05/05 03:51:12;;;;;;;0.00;0.00;;;17.80;99.90;;;;;;5053261;28;20051;-78
2022/05/05 03:53:38;;;;;;;0.03;0.03;;;17.70;99.90;;;;;;5047009;28;20064;-78
2022/05/05 03:56:05;;;;;;;0.10;0.10;;;17.80;99.90;;;;;;5046148;28;20489;-79
2022/05/05 03:58:31;;;;;;;0.00;0.00;;;18.00;99.90;;;;;;5045586;28;20040;-78
2022/05/05 04:01:00;;;;;;;0.40;0.40;;;17.70;99.90;;;;;;5048657;28;20112;-78
2022/05/05 04:03:32;;;;;;;0.40;0.40;;;17.60;99.90;;;;;;5048951;28;20029;-79
2022/05/05 04:05:59;;;;;;;0.00;0.00;;;17.40;99.90;;;;;;5045487;28;20100;-78
2022/05/05 04:08:26;;;;;;;2.38;2.28;;;17.80;99.90;;;;;;5049017;28;20469;-78
2022/05/05 04:10:53;;;;;;;0.00;0.00;;;18.00;99.90;;;;;;5045959;28;20029;-78
2022/05/05 04:13:20;;;;;;;0.00;0.00;;;18.40;99.90;;;;;;5049843;28;20512;-75
2022/05/05 04:15:46;;;;;;;0.00;0.00;;;18.60;99.90;;;;;;5052739;28;20055;-77
2022/05/05 04:18:13;;;;;;;0.20;0.20;;;18.60;99.90;;;;;;5049379;28;20025;-75
2022/05/05 04:20:41;;;;;;;0.95;0.95;;;18.40;99.90;;;;;;5052756;28;20055;-77
2022/05/05 04:23:07;;;;;;;1.27;1.17;;;18.30;99.90;;;;;;5051627;28;20562;-75
2022/05/05 04:25:35;;;;;;;0.00;0.00;;;18.20;99.90;;;;;;5049787;28;20020;-74
2022/05/05 04:28:01;;;;;;;0.22;0.22;;;18.30;99.90;;;;;;5049181;28;20027;-74
2022/05/05 04:30:27;;;;;;;0.35;0.35;;;18.50;99.90;;;;;;5049172;28;20030;-74
2022/05/05 04:32:53;;;;;;;4.30;2.60;;;18.50;99.90;;;;;;5051086;28;20032;-74
2022/05/05 04:35:20;;;;;;;0.75;0.75;;;18.90;99.90;;;;;;5048624;28;20507;-75
2022/05/05 04:37:46;;;;;;;0.00;0.00;;;19.10;99.90;;;;;;5044193;28;20030;-74
2022/05/05 04:40:12;;;;;;;0.00;0.00;;;19.20;99.90;;;;;;5048807;28;20040;-75
2022/05/05 04:42:38;;;;;;;0.00;0.00;;;19.10;99.90;;;;;;5047368;28;20025;-76
2022/05/05 04:45:05;;;;;;;0.00;0.00;;;19.40;99.90;;;;;;5045157;28;20040;-75
2022/05/05 04:47:33;;;;;;;1.08;1.08;;;19.40;99.90;;;;;;5048175;28;20029;-77
2022/05/05 04:49:59;;;;;;;1.67;0.20;;;18.80;99.90;;;;;;5075556;28;20043;-77
2022/05/05 04:52:25;;;;;;;0.00;0.00;;;18.70;99.90;;;;;;5050351;28;20021;-77
2022/05/05 04:54:51;;;;;;;0.00;0.00;;;18.70;99.90;;;;;;5049886;28;20115;-77
2022/05/05 04:57:18;;;;;;;0.05;0.05;;;18.60;99.90;;;;;;5049881;28;20488;-75
2022/05/05 04:59:44;;;;;;;0.00;0.00;;;18.80;99.90;;;;;;5047996;28;20021;-76
2022/05/05 05:02:10;;;;;;;0.10;0.10;;;18.30;99.90;;;;;;5055263;28;20024;-76
2022/05/05 05:04:36;;;;;;;0.70;0.63;;;18.50;99.90;;;;;;5054906;28;20029;-75
2022/05/05 05:07:02;;;;;;;2.22;2.03;;;18.90;99.90;;;;;;5035901;28;20390;-74
2022/05/05 05:09:29;;;;;;;0.00;0.00;;;19.40;99.90;;;;;;5031761;28;20025;-74
2022/05/05 05:11:55;;;;;;;0.00;0.00;;;18.90;99.90;;;;;;5048356;28;20120;-73
2022/05/05 05:14:22;;;;;;;0.00;0.00;;;18.80;99.90;;;;;;5047579;28;20427;-73
2022/05/05 05:16:48;;;;;;;0.00;0.00;;;19.30;99.90;;;;;;5050999;28;20040;-74
2022/05/05 05:19:14;;;;;;;0.00;0.00;;;19.20;99.90;;;;;;5049734;28;20028;-74
2022/05/05 05:21:40;;;;;;;0.00;0.00;;;19.70;99.90;;;;;;5051423;28;20029;-75
2022/05/05 05:24:06;;;;;;;6.55;5.97;;;20.20;99.90;;;;;;5045180;28;20112;-75
2022/05/05 05:26:33;;;;;;;5.05;1.30;;;20.10;99.90;;;;;;5051091;28;20472;-75
2022/05/05 05:28:59;;;;;;;0.38;0.38;;;19.80;99.90;;;;;;5048432;28;20041;-74
2022/05/05 05:31:25;;;;;;;0.00;0.00;;;20.10;99.90;;;;;;5047609;28;20032;-75
2022/05/05 05:33:51;;;;;;;0.00;0.00;;;19.70;99.90;;;;;;5048144;28;20029;-75
2022/05/05 05:36:18;;;;;;;0.10;0.10;;;19.80;99.90;;;;;;5046926;28;20020;-72
2022/05/05 05:38:44;;;;;;;0.00;0.00;;;20.10;99.90;;;;;;5051512;28;20028;-72
2022/05/05 05:41:10;;;;;;;0.85;0.85;;;19.60;99.90;;;;;;5050295;28;20021;-72
2022/05/05 05:43:37;;;;;;;4.18;1.85;;;19.70;99.90;;;;;;5052209;28;20108;-71
2022/05/05 05:46:03;;;;;;;0.15;0.15;;;20.00;99.90;;;;;;5053377;28;20033;-70
2022/05/05 05:48:29;;;;;;;0.00;0.00;;;19.80;99.90;;;;;;5053414;28;20021;-72
2022/05/05 05:50:55;;;;;;;2.78;2.40;;;19.70;99.90;;;;;;5065928;28;20025;-71
2022/05/05 05:53:21;;;;;;;0.77;0.70;;;19.20;99.90;;;;;;5049416;28;20082;-71
2022/05/05 05:55:47;;;;;;;0.00;0.00;;;19.50;99.90;;;;;;5046732;28;20032;-72
2022/05/05 05:58:13;;;;;;;1.45;1.45;;;19.10;99.90;;;;;;5047880;28;20025;-73
2022/05/05 06:00:40;;;;;;;0.00;0.00;;;19.40;99.90;;;;;;5048182;28;20564;-73
2022/05/05 06:05:51;;;;;;;0.00;0.00;;;20.40;99.90;;;;;;5052698;28;20032;-76
2022/05/05 06:08:17;;;;;;;0.20;0.20;;;20.40;99.90;;;;;;5051757;28;20123;-77
2022/05/05 06:10:43;;;;;;;0.00;0.00;;;20.90;99.90;;;;;;5050867;28;20021;-72
2022/05/05 06:13:09;;;;;;;0.00;0.00;;;21.00;99.90;;;;;;5052858;28;20488;-72
2022/05/05 06:15:35;;;;;;;1.17;1.08;;;20.90;99.90;;;;;;5051677;28;20511;-72
2022/05/05 06:18:02;;;;;;;2.08;1.48;;;21.30;99.90;;;;;;5051785;28;20100;-73
2022/05/05 06:20:28;;;;;;;2.55;2.30;;;21.20;99.90;;;;;;5053280;28;20041;-73
2022/05/05 06:22:54;;;;;;;0.10;0.10;;;20.60;99.90;;;;;;5058399;28;20032;-72
2022/05/05 06:25:23;;;;;;;0.00;0.00;;;20.70;99.90;;;;;;5056744;28;20029;-72
2022/05/05 06:27:50;;;;;;;0.10;0.10;;;20.60;99.90;;;;;;5059782;28;20024;-71
2022/05/05 06:30:16;;;;;;;3.50;3.10;;;21.10;99.90;;;;;;5062507;28;20032;-71
2022/05/05 06:32:44;;;;;;;2.80;2.65;;;21.10;99.90;;;;;;5064041;28;20021;-72
2022/05/05 06:35:11;;;;;;;3.67;3.30;;;20.90;99.90;;;;;;5057986;28;20021;-72
2022/05/05 06:37:38;;;;;;;3.55;1.35;;;20.90;99.90;;;;;;5060155;28;20021;-71
2022/05/05 06:40:06;;;;;;;3.65;1.35;;;20.60;99.90;;;;;;5059717;28;20181;-72
2022/05/05 06:42:32;;;;;;;0.00;0.00;;;20.30;99.90;;;;;;5043639;28;20033;-72
2022/05/05 06:44:59;;;;;;;0.95;0.95;;;20.10;99.90;;;;;;5050377;28;20037;-72
2022/05/05 06:47:26;;;;;;;0.20;0.20;;;20.20;99.90;;;;;;5048890;28;20025;-72
2022/05/05 06:49:52;;;;;;;0.73;0.57;;;20.00;99.90;;;;;;5072033;28;20111;-73
2022/05/05 06:52:18;;;;;;;1.77;1.30;;;20.00;99.90;;;;;;5060518;28;20502;-73
2022/05/05 06:54:44;;;;;;;0.70;0.55;;;20.30;99.90;;;;;;5049047;28;20041;-73
2022/05/05 06:57:10;;;;;;;11.55;4.72;;;20.40;99.90;;;;;;5041818;28;20036;-73
2022/05/05 06:59:36;;;;;;;0.65;0.65;;;19.90;99.90;;;;;;5040443;28;20033;-73
2022/05/05 07:02:02;;;;;;;0.10;0.10;;;19.20;99.90;;;;;;5056027;28;20037;-74
2022/05/05 07:07:30;;;;;;;0.55;0.55;;;19.70;99.90;;;;;;5044202;28;20392;-73
2022/05/05 07:12:41;;;;;;;1.65;1.35;;;20.40;99.90;;;;;;5049019;28;20027;-73
2022/05/05 07:15:07;;;;;;;5.50;3.58;;;20.40;99.90;;;;;;5044557;28;20363;-73
2022/05/05 07:17:33;;;;;;;3.60;1.33;;;20.20;99.90;;;;;;5050617;28;20021;-72
2022/05/05 07:19:59;;;;;;;2.63;0.65;;;20.20;99.90;;;;;;5050187;28;20361;-72
2022/05/05 07:22:25;;;;;;;0.22;0.22;;;20.20;99.90;;;;;;5046361;28;20589;-72
2022/05/05 07:24:51;;;;;;;0.57;0.50;;;20.60;99.90;;;;;;5049244;28;20091;-72
2022/05/05 07:27:17;;;;;;;1.45;1.35;;;20.30;99.90;;;;;;5057397;28;20093;-73
2022/05/05 07:29:43;;;;;;;4.95;3.80;;;20.50;99.90;;;;;;5052103;28;20025;-72
2022/05/05 07:32:10;;;;;;;5.32;3.13;;;20.50;99.90;;;;;;5045756;28;20052;-73
2022/05/05 07:34:38;;;;;;;3.08;1.77;;;20.60;99.90;;;;;;5047277;28;20023;-72
2022/05/05 07:37:04;;;;;;;10.30;3.83;;;20.10;99.90;;;;;;5048829;28;20036;-75
2022/05/05 07:39:30;;;;;;;1.42;1.33;;;20.00;99.90;;;;;;5047926;28;20074;-74
2022/05/05 07:41:56;;;;;;;0.00;0.00;;;20.10;99.90;;;;;;5048090;28;20025;-74
2022/05/05 07:44:23;;;;;;;1.65;0.98;;;19.80;99.90;;;;;;5049225;28;20036;-75
2022/05/05 07:46:49;;;;;;;0.00;0.00;;;20.30;99.90;;;;;;5049637;28;20025;-75
2022/05/05 07:49:15;;;;;;;6.80;4.38;;;20.50;99.90;;;;;;5053373;28;20115;-75
2022/05/05 07:51:41;;;;;;;5.55;2.60;;;20.70;99.90;;;;;;5042623;28;20468;-75
2022/05/05 07:56:52;;;;;;;0.05;0.05;;;20.60;99.90;;;;;;5046885;28;20527;-75
2022/05/05 07:59:21;;;;;;;7.35;3.28;;;21.00;99.90;;;;;;5052782;28;20153;-76
2022/05/05 08:01:47;;;;;;;1.00;1.00;;;21.20;99.90;;;;;;5049893;28;20382;-76
2022/05/05 08:04:14;;;;;;;7.47;3.22;;;21.10;99.90;;;;;;5046265;28;20029;-76
2022/05/05 08:06:40;;;;;;;0.68;0.47;;;21.00;99.90;;;;;;5047317;28;20029;-76
2022/05/05 08:09:06;;;;;;;0.50;0.50;;;20.70;99.90;;;;;;5042878;28;20029;-76
2022/05/05 08:11:34;;;;;;;0.00;0.00;;;20.90;99.90;;;;;;5051086;28;20021;-76
2022/05/05 08:14:00;;;;;;;3.60;2.85;;;21.20;99.90;;;;;;5047349;28;20551;-76
2022/05/05 08:16:26;;;;;;;3.80;3.45;;;20.90;99.90;;;;;;5048599;28;20026;-78
2022/05/05 08:18:52;;;;;;;1.80;1.58;;;21.20;99.90;;;;;;5048321;28;20053;-78
2022/05/05 08:21:18;;;;;;;11.13;5.07;;;21.00;99.90;;;;;;5047657;28;20037;-74
2022/05/05 08:23:44;;;;;;;1.85;1.27;;;20.70;99.90;;;;;;5055484;28;20032;-74
2022/05/05 08:28:54;;;;;;;0.00;0.00;;;20.90;99.90;;;;;;5044103;28;20094;-74
2022/05/05 08:31:21;;;;;;;1.77;1.27;;;21.40;99.90;;;;;;5046520;28;20071;-75
2022/05/05 08:33:47;;;;;;;0.82;0.77;;;21.50;99.90;;;;;;5047155;28;20025;-74
2022/05/05 08:36:13;;;;;;;0.75;0.70;;;20.90;99.90;;;;;;5048196;28;20036;-74
2022/05/05 08:38:39;;;;;;;0.10;0.10;;;21.30;99.90;;;;;;5047868;28;20047;-72
2022/05/05 08:41:11;;;;;;;4.70;4.03;;;21.30;99.90;;;;;;5051640;28;20017;-74
2022/05/05 08:43:37;;;;;;;0.00;0.00;;;21.50;99.90;;;;;;5050825;28;20064;-74
2022/05/05 08:46:03;;;;;;;0.20;0.20;;;21.50;99.90;;;;;;5042428;28;20025;-74
2022/05/05 08:48:34;;;;;;;5.32;5.10;;;21.20;99.90;;;;;;5041685;28;20531;-73
2022/05/05 08:51:01;;;;;;;2.42;1.60;;;21.30;99.90;;;;;;5073105;28;20087;-73
2022/05/05 08:53:36;;;;;;;0.00;0.00;;;21.20;99.90;;;;;;5045872;28;20049;-74
2022/05/05 08:56:04;;;;;;;1.75;1.65;;;21.40;99.90;;;;;;5047438;28;20025;-75
2022/05/05 08:58:31;;;;;;;8.82;5.60;;;21.50;99.90;;;;;;5049179;28;20041;-74
2022/05/05 09:00:58;;;;;;;2.28;1.42;;;21.50;99.90;;;;;;5047554;28;20025;-75
2022/05/05 09:03:24;;;;;;;0.00;0.00;;;21.30;99.90;;;;;;5047545;28;20028;-74
2022/05/05 09:05:52;;;;;;;6.50;2.05;;;21.50;99.90;;;;;;5045862;28;20029;-74
2022/05/05 09:08:33;;;;;;;1.60;1.50;;;21.70;99.90;;;;;;5047814;28;20025;-73
2022/05/05 09:11:05;;;;;;;0.55;0.55;;;21.90;99.90;;;;;;5040103;28;20037;-74
2022/05/05 09:13:36;;;;;;;0.00;0.00;;;21.90;99.90;;;;;;5042489;28;20025;-73
2022/05/05 09:16:04;;;;;;;4.72;3.40;;;22.10;99.90;;;;;;5042929;28;20021;-73
2022/05/05 09:18:33;;;;;;;3.17;1.40;;;22.20;99.90;;;;;;5043682;28;20483;-73
2022/05/05 09:21:04;;;;;;;2.33;1.90;;;21.90;99.90;;;;;;5039830;28;20060;-73
2022/05/05 09:26:30;;;;;;;1.13;1.08;;;22.10;99.90;;;;;;5034180;28;20052;-74
2022/05/05 09:28:57;;;;;;;4.30;2.53;;;21.60;99.90;;;;;;5040799;28;20473;-74
2022/05/05 09:31:23;;;;;;;0.43;0.32;;;21.70;99.90;;;;;;5048070;28;20021;-74
2022/05/05 09:33:52;;;;;;;0.28;0.28;;;21.80;99.90;;;;;;5042989;28;20449;-75
2022/05/05 09:36:27;;;;;;;0.98;0.57;;;22.00;99.90;;;;;;5044259;28;20477;-73
2022/05/05 09:38:56;;;;;;;1.70;1.30;;;21.20;99.90;;;;;;5037361;28;20110;-73
2022/05/05 09:41:28;;;;;;;0.75;0.70;;;21.70;99.90;;;;;;5039642;28;20366;-75
2022/05/05 09:43:55;;;;;;;0.70;0.38;;;22.00;99.90;;;;;;5042009;28;20071;-74
2022/05/05 09:46:21;;;;;;;1.20;1.10;;;21.80;99.90;;;;;;5042762;28;20385;-75
2022/05/05 09:48:48;;;;;;;1.65;0.68;;;22.00;99.90;;;;;;5039963;28;20034;-75
2022/05/05 09:51:17;;;;;;;0.10;0.10;;;21.90;99.90;;;;;;5037989;28;20080;-75
2022/05/05 09:59:42;;;;;;;1.10;0.52;;;22.40;99.90;;;;;;5019646;28;20022;-75
2022/05/05 10:05:21;;;;;;;0.70;0.65;;;21.80;99.90;;;;;;5042750;28;20598;-75
2022/05/05 10:07:49;;;;;;;2.50;2.40;;;22.10;99.90;;;;;;5046994;28;20029;-76
2022/05/05 10:10:18;;;;;;;1.13;1.02;;;22.10;99.90;;;;;;5041502;28;20067;-76
2022/05/05 10:12:45;;;;;;;0.00;0.00;;;21.90;99.90;;;;;;5048521;28;20394;-73
2022/05/05 10:15:13;;;;;;;2.30;2.13;;;21.60;99.90;;;;;;5045680;28;20022;-73
2022/05/05 10:17:40;;;;;;;1.85;1.60;;;21.90;99.90;;;;;;5048569;28;20377;-74
2022/05/05 10:20:10;;;;;;;0.00;0.00;;;21.90;99.90;;;;;;5075054;28;20432;-72
2022/05/05 10:22:48;;;;;;;0.10;0.10;;;21.80;99.90;;;;;;5052759;28;20021;-73
2022/05/05 10:25:21;;;;;;;1.30;1.15;;;22.00;99.90;;;;;;5052769;28;20021;-72
2022/05/05 10:27:48;;;;;;;22.08;3.63;;;22.10;99.90;;;;;;5050357;28;20031;-73
2022/05/05 10:30:32;;;;;;;0.55;0.32;;;22.00;99.90;;;;;;5055384;28;20031;-73
2022/05/05 10:32:58;;;;;;;0.00;0.00;;;21.70;99.90;;;;;;5046274;28;20024;-73
2022/05/05 10:35:25;;;;;;;1.55;1.45;;;21.90;99.90;;;;;;5048724;28;20024;-73
2022/05/05 10:37:51;;;;;;;1.10;0.75;;;21.80;99.90;;;;;;5044863;28;20370;-73
2022/05/05 10:40:17;;;;;;;9.60;6.95;;;21.40;99.90;;;;;;5051851;28;20032;-73
2022/05/05 10:42:53;;;;;;;0.98;0.88;;;21.20;99.90;;;;;;5052601;28;20033;-74
2022/05/05 10:45:32;;;;;;;0.25;0.25;;;21.60;99.90;;;;;;5053017;28;20116;-72
2022/05/05 10:47:59;;;;;;;0.00;0.00;;;21.80;99.90;;;;;;5052809;28;20029;-73
2022/05/05 10:53:40;;;;;;;6.75;0.50;;;22.50;99.90;;;;;;5051202;28;20033;-73
2022/05/05 10:56:27;;;;;;;0.98;0.90;;;22.10;99.90;;;;;;5044424;28;20122;-73
2022/05/05 10:59:04;;;;;;;0.13;0.13;;;21.80;99.90;;;;;;5052795;28;20017;-72
2022/05/05 11:01:42;;;;;;;0.00;0.00;;;21.70;99.90;;;;;;5047261;28;20036;-73
2022/05/05 11:04:17;;;;;;;0.00;0.00;;;22.20;99.90;;;;;;5050061;28;20071;-74
2022/05/05 11:06:45;;;;;;;3.47;0.50;;;22.20;99.90;;;;;;5051767;28;20032;-75
2022/05/05 11:09:31;;;;;;;0.52;0.20;;;22.30;99.90;;;;;;5051056;28;20032;-75
2022/05/05 11:12:16;;;;;;;0.13;0.13;;;21.90;99.90;;;;;;5049394;28;20021;-75
2022/05/05 11:23:49;;;;;;;0.00;0.00;;;22.10;99.90;;;;;;5044033;28;20472;-74
2022/05/05 11:26:19;;;;;;;0.00;0.00;;;22.20;99.90;;;;;;5038295;28;20032;-74
2022/05/05 11:28:47;;;;;;;0.00;0.00;;;22.20;99.90;;;;;;5049268;28;20033;-73
2022/05/05 11:31:21;;;;;;;0.38;0.38;;;21.70;99.90;;;;;;5051078;28;20025;-73
2022/05/05 11:33:49;;;;;;;1.90;1.65;;;21.60;99.90;;;;;;5049371;28;20021;-73
2022/05/05 11:36:15;;;;;;;0.10;0.10;;;21.70;99.90;;;;;;5049840;28;20025;-73
2022/05/05 11:38:42;;;;;;;0.00;0.00;;;21.80;99.90;;;;;;5050436;28;20103;-73
2022/05/05 11:41:08;;;;;;;7.07;6.45;;;21.60;99.90;;;;;;5048451;28;20025;-72
2022/05/05 11:46:20;;;;;;;0.00;0.00;;;21.60;99.90;;;;;;5049417;28;20400;-74
2022/05/05 11:48:56;;;;;;;1.70;1.23;;;21.70;99.90;;;;;;5044166;28;20025;-73
2022/05/05 11:51:28;;;;;;;0.10;0.10;;;22.00;99.90;;;;;;5051484;28;20472;-76
2022/05/05 11:54:05;;;;;;;1.67;0.93;;;21.30;99.90;;;;;;5051975;28;20083;-73
2022/05/05 11:56:33;;;;;;;0.00;0.00;;;21.40;99.90;;;;;;5049457;28;20032;-75
2022/05/05 12:02:01;;;;;;;0.00;0.00;;;21.40;99.90;;;;;;5044785;28;20108;-75
2022/05/05 12:04:28;;;;;;;0.10;0.10;;;21.50;99.90;;;;;;5045964;28;20468;-76
2022/05/05 12:06:57;;;;;;;0.00;0.00;;;21.70;99.90;;;;;;5046760;28;20034;-75
2022/05/05 12:09:23;;;;;;;0.00;0.00;;;21.90;99.90;;;;;;5043863;28;20026;-75
2022/05/05 12:11:49;;;;;;;0.47;0.47;;;22.00;99.90;;;;;;5040558;28;20028;-75
2022/05/05 12:14:18;;;;;;;0.30;0.30;;;21.80;99.90;;;;;;5050822;28;20036;-75
2022/05/05 12:16:44;;;;;;;0.00;0.00;;;21.20;99.90;;;;;;5037509;28;20018;-75
2022/05/05 12:19:12;;;;;;;0.00;0.00;;;21.10;99.90;;;;;;5046231;28;20029;-75
2022/05/05 12:21:51;;;;;;;0.00;0.00;;;21.00;99.90;;;;;;5040811;28;20559;-75
2022/05/05 12:24:18;;;;;;;0.20;0.20;;;20.90;99.90;;;;;;5040727;28;20151;-75
2022/05/05 12:26:45;;;;;;;0.00;0.00;;;21.00;99.90;;;;;;5052414;28;20029;-74
2022/05/05 12:29:15;;;;;;;0.60;0.35;;;21.00;99.90;;;;;;5053959;28;20021;-75
2022/05/05 12:31:55;;;;;;;0.95;0.43;;;20.80;99.90;;;;;;5043118;28;20032;-74
2022/05/05 12:34:27;;;;;;;0.00;0.00;;;20.70;99.90;;;;;;5047105;28;20026;-74
2022/05/05 12:37:16;;;;;;;0.38;0.38;;;20.60;99.90;;;;;;5050039;28;20025;-74
2022/05/05 12:40:08;;;;;;;0.00;0.00;;;20.40;99.90;;;;;;5039835;28;20067;-73
2022/05/05 12:42:45;;;;;;;0.30;0.30;;;20.30;99.90;;;;;;5041964;28;20531;-74
2022/05/05 12:45:15;;;;;;;0.10;0.10;;;20.40;99.90;;;;;;5052590;28;20041;-73
2022/05/05 12:47:46;;;;;;;0.00;0.00;;;20.60;99.90;;;;;;5068920;28;20048;-73
2022/05/05 12:50:42;;;;;;;0.00;0.00;;;20.60;99.90;;;;;;5069332;28;20021;-75
2022/05/05 13:01:29;;;;;;;0.00;0.00;;;20.90;99.90;;;;;;5043199;28;20039;-74
2022/05/05 13:04:04;;;;;;;0.00;0.00;;;20.90;99.90;;;;;;5039452;28;20036;-75
2022/05/05 13:06:31;;;;;;;0.00;0.00;;;21.00;99.90;;;;;;5050935;28;20083;-73
2022/05/05 13:08:57;;;;;;;0.10;0.10;;;21.10;99.90;;;;;;5050673;28;20028;-74
2022/05/05 13:11:24;;;;;;;0.80;0.25;;;20.60;99.90;;;;;;5048807;28;20055;-74
2022/05/05 13:13:51;;;;;;;0.00;0.00;;;20.40;99.90;;;;;;5047523;28;20380;-73
2022/05/05 13:16:18;;;;;;;1.35;1.25;;;20.20;99.90;;;;;;5049371;28;20059;-74
2022/05/05 13:18:44;;;;;;;1.95;1.23;;;20.10;99.90;;;;;;5050759;28;20021;-74
2022/05/05 13:21:11;;;;;;;0.00;0.00;;;20.20;99.90;;;;;;5052056;28;20032;-74
2022/05/05 13:23:37;;;;;;;0.30;0.30;;;20.20;99.90;;;;;;5052219;28;20025;-74
2022/05/05 13:26:04;;;;;;;0.43;0.43;;;20.20;99.90;;;;;;5049816;28;20025;-74
2022/05/05 13:28:31;;;;;;;6.45;1.00;;;20.20;99.90;;;;;;5051074;28;20531;-74
2022/05/05 13:30:58;;;;;;;0.10;0.10;;;20.30;99.90;;;;;;5045556;28;20033;-74
2022/05/05 13:33:24;;;;;;;0.95;0.95;;;20.30;99.90;;;;;;5051930;28;20021;-74
2022/05/05 13:35:51;;;;;;;1.60;0.93;;;20.30;99.90;;;;;;5052052;28;20091;-74
2022/05/05 13:38:19;;;;;;;2.20;2.08;;;20.20;99.90;;;;;;5052022;28;20401;-73
2022/05/05 13:40:45;;;;;;;1.45;1.17;;;20.00;99.90;;;;;;5051823;28;20021;-74
2022/05/05 13:43:11;;;;;;;0.08;0.05;;;20.10;99.90;;;;;;5047394;28;20032;-74
2022/05/05 13:45:37;;;;;;;1.60;1.50;;;20.00;99.90;;;;;;5050450;28;20029;-75
2022/05/05 13:48:04;;;;;;;1.33;0.63;;;20.20;99.90;;;;;;5044446;28;20028;-73